McGrew, NE (69353)

11:29 AM MST on December 04, 2016 (GMT -0700)
ASOS_HFM | | Change Station

Elev 3956 ft 41.87 °N, 103.60 °W | Updated 34 minutes ago

Clear
Clear
46 °F
Feels Like 39 °F
N
16
Wind Variable Wind from West
Gusts 0.0 mph

Today
High -- | Low -- °F
--% Chance of Precip.
Yesterday
High -- | Low -- °F
Precip. -- in
Pressure 29.96 in
Visibility 10.0 miles
Clouds Clear
Windchill 39 °F
Dew Point 16 °F
Humidity 29%
Rainfall in
Snow Depth Not available.
7:04 AM 4:23 PM
Waxing Crescent, 24% visible
METAR KBFF 041753Z AUTO 28014G21KT 10SM CLR 08/M09 A2991 RMK AO2 SLP145 T00781094 10078 21100 58021
Pressure 29.96 in
Visibility 10.0 miles
Clouds Clear
Windchill 39 °F
Dew Point 16 °F
Humidity 29%
Rainfall in
Snow Depth Not available.
7:04 AM 4:23 PM
Waxing Crescent, 24% visible
METAR KBFF 041753Z AUTO 28014G21KT 10SM CLR 08/M09 A2991 RMK AO2 SLP145 T00781094 10078 21100 58021

10-Day Weather Forecast

Almanac

Astronomy

Dec. 04, 2016 Rise Set
Actual Time
Civil Twilight
Nautical Twilight
Astronomical Twilight
Moon
Length of Visible Light
Length of Day
Tomorrow will be .
, % of the Moon is Illuminated

Today's Extremes

State Highs State Lows

Community

WunderPhotos

Upload Photos

1,955,639 photos uploaded!

WunderBlog® & News

Nearby

Air Quality

  Air Quality AQ Index Pollutant
Not available.

Snow Depth

Station Depth Elevation

Earthquake Activity

City Distance Mag. Time & Date
Minimum magnitude displayed is 2.5.

Coastal Water Temperatures

Place Temperature

Stations

Nearby Weather Stations

Station Location Temp. Windchill Dew Point Humidity Wind Precip. Elev Updated Type
                   

Watches & Warnings

There are currently no watches in effect.